Terminal Aerodrome Forecast
Issued by NWS Kansas City/Pleasant Hill, MO

Home | Current Version | Previous Version | Text Only | Print | Product List | Glossary On
Versions: 1 2 3 4 5 6 7 8 9 10 11 12
000
FTUS43 KEAX 191739
TAFMCI
TAF
KMCI 191739Z 1918/2018 31011KT 6SM BR OVC009
      TEMPO 1918/1921 2SM BR OVC004
     FM200100 VRB04KT 4SM -FZDZ BR OVC003
     FM200600 VRB03KT 3SM -DZ BR OVC002 WS020/20045KT
     FM201300 32014KT 6SM BR VCSH OVC012=

USA.gov is the U.S. government's official web portal to all federal, state and local government web resources and services.